Time;durP1;ratioP1;P1;durP2;ratioP2;P2;SDS_P1;SDS_P2;PMS_P1;PMS_P2;Temp;Humidity;BMP_temperature;BMP_pressure;BME280_temperature;BME280_humidity;BME280_pressure;Samples;Min_cycle;Max_cycle;Signal;HPM_P1;HPM_P2
2023/08/04 00:24:52;;;;;;;7.15;2.15;;;;;;;;;;5068445;22;20075;-92
2023/08/04 00:28:08;;;;;;;6.40;2.10;;;;;;;;;;5092893;28;20067;-92
2023/08/04 00:48:45;;;;;;;;;;;;;;;;;;;;;
2023/08/04 00:51:39;;;;;;;9.32;2.92;;;;;;;;;;5064546;28;20440;-91
2023/08/04 00:58:20;;;;;;;;;;;;;;;;;;;;;
2023/08/04 01:03:16;;;;;;;7.57;2.38;;;;;;;;;;5113506;22;20056;-75
2023/08/04 01:05:47;;;;;;;10.02;2.63;;;;;;;;;;5075782;28;20055;-76
2023/08/04 01:08:13;;;;;;;9.73;2.90;;;;;;;;;;5075129;28;20040;-76
2023/08/04 01:11:01;;;;;;;11.15;2.67;;;;;;;;;;5073912;28;20438;-75
2023/08/04 01:13:28;;;;;;;9.60;3.05;;;;;;;;;;5074369;28;20496;-75
2023/08/04 01:15:55;;;;;;;8.43;2.55;;;;;;;;;;5057001;28;20064;-75
2023/08/04 01:18:21;;;;;;;8.75;2.53;;;;;;;;;;5074798;28;20047;-75
2023/08/04 01:20:48;;;;;;;6.57;2.30;;;;;;;;;;5040311;28;20370;-76
2023/08/04 01:23:14;;;;;;;8.20;2.40;;;;;;;;;;5056634;28;20044;-75
2023/08/04 01:25:42;;;;;;;5.57;2.20;;;;;;;;;;5074052;28;20063;-76
2023/08/04 01:28:13;;;;;;;7.72;2.33;;;;;;;;;;5085655;28;20047;-76
2023/08/04 01:30:41;;;;;;;9.38;2.28;;;;;;;;;;5093916;28;20076;-76
2023/08/04 01:33:07;;;;;;;7.07;2.30;;;;;;;;;;5081930;28;20083;-76
2023/08/04 01:35:34;;;;;;;8.23;2.60;;;;;;;;;;5089616;28;20035;-75
2023/08/04 01:38:00;;;;;;;9.90;2.50;;;;;;;;;;5075915;28;20040;-75
2023/08/04 01:40:26;;;;;;;6.97;2.45;;;;;;;;;;5066518;28;20048;-76
2023/08/04 01:42:52;;;;;;;7.35;2.25;;;;;;;;;;5064388;28;20051;-76
2023/08/04 01:45:19;;;;;;;6.22;2.25;;;;;;;;;;5092324;28;20036;-76
2023/08/04 01:47:45;;;;;;;5.45;2.03;;;;;;;;;;5093771;28;20407;-75
2023/08/04 01:50:12;;;;;;;8.10;2.42;;;;;;;;;;5074068;28;20048;-76
2023/08/04 01:52:38;;;;;;;7.85;2.33;;;;;;;;;;5074134;28;20098;-75
2023/08/04 01:55:04;;;;;;;10.13;2.53;;;;;;;;;;5073482;28;20055;-76
2023/08/04 01:57:30;;;;;;;11.10;2.53;;;;;;;;;;5056955;28;20087;-76
2023/08/04 01:59:56;;;;;;;7.50;2.42;;;;;;;;;;5055272;28;20060;-75
2023/08/04 02:02:23;;;;;;;8.70;2.90;;;;;;;;;;5056053;28;20056;-77
2023/08/04 02:04:49;;;;;;;11.23;2.55;;;;;;;;;;5073033;28;20467;-77
2023/08/04 02:07:15;;;;;;;8.82;2.47;;;;;;;;;;5083346;28;20048;-76
2023/08/04 02:09:43;;;;;;;10.68;2.60;;;;;;;;;;5060133;28;20408;-76
2023/08/04 02:12:09;;;;;;;7.47;2.20;;;;;;;;;;5059191;28;20439;-76
2023/08/04 02:14:35;;;;;;;8.68;2.63;;;;;;;;;;5073039;28;20477;-76
2023/08/04 02:17:01;;;;;;;10.48;3.00;;;;;;;;;;5045869;28;20051;-75
2023/08/04 02:19:27;;;;;;;9.85;2.60;;;;;;;;;;5073277;28;20040;-76
2023/08/04 02:21:53;;;;;;;8.52;2.50;;;;;;;;;;5069902;28;20052;-75
2023/08/04 02:24:19;;;;;;;8.70;2.67;;;;;;;;;;5073418;28;20044;-76
2023/08/04 02:26:45;;;;;;;8.63;2.75;;;;;;;;;;5073306;28;20101;-77
2023/08/04 02:29:12;;;;;;;9.45;2.85;;;;;;;;;;5074985;28;20070;-76
2023/08/04 02:31:38;;;;;;;7.07;2.47;;;;;;;;;;5079396;28;20051;-77
2023/08/04 02:34:04;;;;;;;9.05;2.90;;;;;;;;;;5090493;28;20044;-77
2023/08/04 02:36:31;;;;;;;8.88;2.72;;;;;;;;;;5081252;28;20044;-77
2023/08/04 02:38:57;;;;;;;10.40;2.92;;;;;;;;;;5071052;28;20127;-77
2023/08/04 02:41:23;;;;;;;7.88;2.60;;;;;;;;;;5052804;28;20404;-76
2023/08/04 02:43:49;;;;;;;7.63;2.42;;;;;;;;;;5088575;28;20089;-76
2023/08/04 02:46:15;;;;;;;10.18;2.50;;;;;;;;;;5092357;28;20123;-76
2023/08/04 02:48:41;;;;;;;7.30;2.50;;;;;;;;;;5093040;28;20067;-75
2023/08/04 02:51:09;;;;;;;9.70;2.50;;;;;;;;;;5092581;28;20051;-76
2023/08/04 02:53:36;;;;;;;6.97;2.78;;;;;;;;;;5079519;28;20036;-76
2023/08/04 02:56:12;;;;;;;7.28;2.38;;;;;;;;;;5054712;28;20436;-76
2023/08/04 02:58:38;;;;;;;6.85;2.40;;;;;;;;;;5072878;28;20529;-76
2023/08/04 03:01:05;;;;;;;4.95;2.38;;;;;;;;;;5072288;28;20032;-76
2023/08/04 03:03:34;;;;;;;5.40;2.40;;;;;;;;;;5083517;28;20098;-76
2023/08/04 03:06:01;;;;;;;6.10;2.20;;;;;;;;;;5092148;28;20096;-76
2023/08/04 03:08:27;;;;;;;9.73;2.50;;;;;;;;;;5072896;28;20080;-76
2023/08/04 03:10:54;;;;;;;5.40;2.47;;;;;;;;;;5054635;28;20071;-76
2023/08/04 03:13:20;;;;;;;5.80;2.42;;;;;;;;;;5058402;28;20029;-76
2023/08/04 03:15:46;;;;;;;7.55;2.55;;;;;;;;;;5078177;28;20083;-76
2023/08/04 03:18:12;;;;;;;6.13;2.28;;;;;;;;;;5074579;28;20480;-76
2023/08/04 03:20:39;;;;;;;5.63;2.30;;;;;;;;;;5092755;28;20036;-76
2023/08/04 03:23:06;;;;;;;5.20;2.40;;;;;;;;;;5066147;28;20124;-75
2023/08/04 03:25:33;;;;;;;5.88;2.65;;;;;;;;;;5072018;28;20037;-75
2023/08/04 03:28:00;;;;;;;4.65;2.10;;;;;;;;;;5072701;28;20396;-75
2023/08/04 03:30:27;;;;;;;5.53;2.10;;;;;;;;;;5072406;28;20045;-75
2023/08/04 03:32:53;;;;;;;6.22;2.30;;;;;;;;;;5063227;28;20040;-76
2023/08/04 03:35:19;;;;;;;8.35;2.45;;;;;;;;;;5076270;28;20040;-76
2023/08/04 03:37:45;;;;;;;7.60;2.40;;;;;;;;;;5088560;28;20135;-76
2023/08/04 03:40:13;;;;;;;8.40;2.60;;;;;;;;;;5054474;28;20040;-76
2023/08/04 03:42:40;;;;;;;8.18;2.75;;;;;;;;;;5064141;28;20119;-76
2023/08/04 03:45:06;;;;;;;7.47;2.90;;;;;;;;;;5091871;28;20058;-76
2023/08/04 03:47:33;;;;;;;8.40;3.08;;;;;;;;;;5057278;28;20067;-75
2023/08/04 03:49:59;;;;;;;5.53;3.03;;;;;;;;;;5054921;28;20450;-74
2023/08/04 03:52:25;;;;;;;7.00;2.70;;;;;;;;;;5076106;28;20400;-75
2023/08/04 03:54:51;;;;;;;6.40;2.90;;;;;;;;;;5088284;28;20096;-75
2023/08/04 03:57:18;;;;;;;8.85;2.75;;;;;;;;;;5088277;28;20040;-75
2023/08/04 03:59:44;;;;;;;5.97;2.55;;;;;;;;;;5075910;28;20045;-77
2023/08/04 04:02:10;;;;;;;8.63;2.83;;;;;;;;;;5057958;28;20059;-75
2023/08/04 04:04:36;;;;;;;7.70;3.25;;;;;;;;;;5091372;28;20400;-76
2023/08/04 04:07:02;;;;;;;6.50;3.22;;;;;;;;;;5077950;28;20131;-75
2023/08/04 04:09:28;;;;;;;6.65;2.80;;;;;;;;;;5095764;28;20054;-75
2023/08/04 04:11:54;;;;;;;6.65;2.70;;;;;;;;;;5095769;28;20377;-75
2023/08/04 04:14:20;;;;;;;6.68;2.90;;;;;;;;;;5064230;28;20037;-76
2023/08/04 04:16:46;;;;;;;7.05;2.60;;;;;;;;;;5057769;28;20062;-75
2023/08/04 04:19:13;;;;;;;8.43;2.65;;;;;;;;;;5075980;28;20033;-76
2023/08/04 04:21:39;;;;;;;4.82;2.45;;;;;;;;;;5077000;28;20048;-75
2023/08/04 04:24:05;;;;;;;5.05;2.55;;;;;;;;;;5094841;28;20146;-76
2023/08/04 04:26:31;;;;;;;4.68;2.38;;;;;;;;;;5058250;28;20045;-75
2023/08/04 04:28:57;;;;;;;4.22;2.33;;;;;;;;;;5068346;28;20047;-74
2023/08/04 04:31:23;;;;;;;5.30;2.70;;;;;;;;;;5083173;28;20058;-75
2023/08/04 04:33:50;;;;;;;7.70;2.60;;;;;;;;;;5095663;28;20071;-76
2023/08/04 04:36:16;;;;;;;6.70;2.75;;;;;;;;;;5058397;28;20057;-76
2023/08/04 04:38:42;;;;;;;8.48;2.97;;;;;;;;;;5069826;28;20044;-76
2023/08/04 04:41:09;;;;;;;8.00;2.80;;;;;;;;;;5075222;28;20120;-76
2023/08/04 04:43:36;;;;;;;6.50;2.83;;;;;;;;;;5085223;28;20036;-76
2023/08/04 04:46:03;;;;;;;8.43;3.20;;;;;;;;;;5095300;28;20044;-75
2023/08/04 04:48:29;;;;;;;5.68;2.70;;;;;;;;;;5077502;28;20059;-76
2023/08/04 04:50:55;;;;;;;5.57;2.78;;;;;;;;;;5095012;28;20048;-76
2023/08/04 04:53:22;;;;;;;8.43;2.90;;;;;;;;;;5095367;28;20051;-76
2023/08/04 04:55:48;;;;;;;7.10;3.30;;;;;;;;;;5085249;28;20481;-76
2023/08/04 04:58:14;;;;;;;6.50;3.20;;;;;;;;;;5075150;28;20047;-77
2023/08/04 05:00:42;;;;;;;6.05;2.65;;;;;;;;;;5041914;28;20097;-76
2023/08/04 05:03:10;;;;;;;7.22;2.80;;;;;;;;;;5074672;28;20067;-77
2023/08/04 05:05:37;;;;;;;7.07;3.05;;;;;;;;;;5074196;28;20060;-78
2023/08/04 05:08:04;;;;;;;4.85;2.70;;;;;;;;;;5074941;28;20056;-77
2023/08/04 05:10:30;;;;;;;6.18;2.70;;;;;;;;;;5074431;28;20040;-78
2023/08/04 05:12:57;;;;;;;6.75;2.90;;;;;;;;;;5074643;28;20066;-77
2023/08/04 05:15:23;;;;;;;6.68;2.50;;;;;;;;;;5074527;28;20354;-76
2023/08/04 05:17:49;;;;;;;5.85;2.50;;;;;;;;;;5057902;28;20058;-76
2023/08/04 05:20:15;;;;;;;5.22;2.60;;;;;;;;;;5074325;28;20070;-76
2023/08/04 05:22:43;;;;;;;4.72;2.45;;;;;;;;;;5058571;28;20438;-76
2023/08/04 05:25:09;;;;;;;5.55;2.70;;;;;;;;;;5094353;28;20048;-77
2023/08/04 05:27:35;;;;;;;4.72;2.35;;;;;;;;;;5065651;28;20455;-76
2023/08/04 05:30:01;;;;;;;5.13;2.80;;;;;;;;;;5056264;28;20456;-77
2023/08/04 05:32:28;;;;;;;5.78;2.58;;;;;;;;;;5074895;28;20044;-76
2023/08/04 05:34:54;;;;;;;5.60;2.90;;;;;;;;;;5074884;28;20048;-76
2023/08/04 05:37:20;;;;;;;4.60;2.80;;;;;;;;;;5056071;28;20036;-77
2023/08/04 05:39:46;;;;;;;7.22;3.20;;;;;;;;;;5055813;28;20076;-76
2023/08/04 05:42:12;;;;;;;7.57;2.80;;;;;;;;;;5074052;28;20405;-76
2023/08/04 05:44:38;;;;;;;5.07;2.70;;;;;;;;;;5072287;28;20048;-77
2023/08/04 05:47:04;;;;;;;6.18;3.25;;;;;;;;;;5074120;28;20049;-78
2023/08/04 05:49:34;;;;;;;5.25;2.63;;;;;;;;;;5056067;28;20413;-76
2023/08/04 05:52:00;;;;;;;4.53;2.60;;;;;;;;;;5073835;28;20044;-76
2023/08/04 05:54:26;;;;;;;6.47;2.70;;;;;;;;;;5049791;28;20044;-75
2023/08/04 05:56:52;;;;;;;6.05;2.80;;;;;;;;;;5071725;28;20079;-76
2023/08/04 05:59:19;;;;;;;7.00;2.80;;;;;;;;;;5072531;28;20045;-75
2023/08/04 06:01:45;;;;;;;5.78;2.70;;;;;;;;;;5062342;28;20056;-74
2023/08/04 06:04:11;;;;;;;5.28;2.80;;;;;;;;;;5061186;28;20036;-75
2023/08/04 06:06:37;;;;;;;4.65;2.60;;;;;;;;;;5089413;28;20051;-76
2023/08/04 06:09:03;;;;;;;6.50;2.50;;;;;;;;;;5067795;28;20047;-76
2023/08/04 06:11:29;;;;;;;3.78;2.55;;;;;;;;;;5093837;28;20051;-76
2023/08/04 06:13:55;;;;;;;5.78;2.75;;;;;;;;;;5075207;28;20059;-76
2023/08/04 06:16:22;;;;;;;5.57;2.53;;;;;;;;;;5087139;28;20451;-76
2023/08/04 06:18:48;;;;;;;4.25;2.50;;;;;;;;;;5087015;28;20400;-77
2023/08/04 06:21:14;;;;;;;4.70;2.33;;;;;;;;;;5080739;28;20040;-77
2023/08/04 06:23:45;;;;;;;5.57;2.50;;;;;;;;;;5065913;28;20138;-77
2023/08/04 06:26:12;;;;;;;8.35;2.60;;;;;;;;;;5071979;28;20040;-77
2023/08/04 06:28:38;;;;;;;7.07;2.60;;;;;;;;;;5073377;28;20036;-76
2023/08/04 06:31:05;;;;;;;3.70;2.30;;;;;;;;;;5072907;28;20068;-77
2023/08/04 06:33:31;;;;;;;4.50;2.35;;;;;;;;;;5073386;28;20044;-76
2023/08/04 06:35:57;;;;;;;5.95;2.55;;;;;;;;;;5072629;28;20500;-77
2023/08/04 06:38:23;;;;;;;4.88;2.30;;;;;;;;;;5073056;28;20048;-77
2023/08/04 06:40:49;;;;;;;6.53;2.83;;;;;;;;;;5072622;28;20137;-77
2023/08/04 06:43:16;;;;;;;9.25;2.58;;;;;;;;;;5073941;28;20047;-76
2023/08/04 06:45:42;;;;;;;5.50;2.40;;;;;;;;;;5092740;28;20036;-77
2023/08/04 06:48:08;;;;;;;4.90;2.50;;;;;;;;;;5093711;28;20432;-79
2023/08/04 06:50:34;;;;;;;8.30;2.75;;;;;;;;;;5085085;28;20142;-78
2023/08/04 06:53:00;;;;;;;5.82;2.72;;;;;;;;;;5072793;28;20115;-78
2023/08/04 06:55:26;;;;;;;6.07;2.38;;;;;;;;;;5062468;28;20412;-78
2023/08/04 06:57:52;;;;;;;6.28;2.40;;;;;;;;;;5058366;28;20097;-76
2023/08/04 07:00:18;;;;;;;5.70;2.55;;;;;;;;;;5071726;28;20143;-76
2023/08/04 07:02:48;;;;;;;5.93;2.30;;;;;;;;;;5073061;28;20070;-77
2023/08/04 07:05:15;;;;;;;7.55;2.60;;;;;;;;;;5076197;28;20098;-76
2023/08/04 07:07:41;;;;;;;8.85;3.10;;;;;;;;;;5072670;28;20123;-77
2023/08/04 07:10:08;;;;;;;5.95;2.55;;;;;;;;;;5072250;28;20049;-75
2023/08/04 07:12:34;;;;;;;9.63;3.13;;;;;;;;;;5073020;28;20135;-76
2023/08/04 07:15:01;;;;;;;9.13;2.72;;;;;;;;;;5074250;28;20044;-76
2023/08/04 07:17:27;;;;;;;5.32;2.33;;;;;;;;;;5092714;28;20093;-78
2023/08/04 07:19:53;;;;;;;4.47;2.70;;;;;;;;;;5092357;28;20115;-78
2023/08/04 07:22:19;;;;;;;6.50;2.55;;;;;;;;;;5074668;28;20116;-78
2023/08/04 07:24:53;;;;;;;5.22;2.50;;;;;;;;;;5089402;28;20138;-78
2023/08/04 07:27:19;;;;;;;7.78;2.60;;;;;;;;;;5090069;28;20076;-77
2023/08/04 07:29:45;;;;;;;7.45;2.63;;;;;;;;;;5093220;28;20138;-77
2023/08/04 07:32:11;;;;;;;8.93;2.65;;;;;;;;;;5094936;28;20118;-77
2023/08/04 07:34:37;;;;;;;6.93;2.70;;;;;;;;;;5076232;28;20040;-78
2023/08/04 07:37:03;;;;;;;6.93;2.90;;;;;;;;;;5077737;28;20489;-78
2023/08/04 07:39:29;;;;;;;7.53;2.63;;;;;;;;;;5063677;28;20124;-78
2023/08/04 07:41:56;;;;;;;9.80;2.60;;;;;;;;;;5058436;28;20496;-77
2023/08/04 07:44:22;;;;;;;7.05;2.50;;;;;;;;;;5089322;28;20105;-77
2023/08/04 07:46:48;;;;;;;4.88;2.50;;;;;;;;;;5076819;28;20123;-78
2023/08/04 07:49:14;;;;;;;6.40;2.50;;;;;;;;;;5075329;28;20066;-77
2023/08/04 07:51:40;;;;;;;8.35;2.47;;;;;;;;;;5060400;28;20036;-77
2023/08/04 07:54:06;;;;;;;7.93;2.55;;;;;;;;;;5082069;28;20052;-76
2023/08/04 07:56:33;;;;;;;8.43;2.33;;;;;;;;;;5100035;28;20074;-76
2023/08/04 07:58:59;;;;;;;6.95;2.60;;;;;;;;;;5078131;28;20362;-76
2023/08/04 08:01:25;;;;;;;11.25;2.50;;;;;;;;;;5073714;28;20515;-77
2023/08/04 08:03:52;;;;;;;6.38;2.20;;;;;;;;;;5075783;28;20099;-77
2023/08/04 08:06:18;;;;;;;10.15;2.60;;;;;;;;;;5066688;28;20599;-78
2023/08/04 08:08:47;;;;;;;8.98;2.65;;;;;;;;;;5058322;28;20049;-78
2023/08/04 08:11:13;;;;;;;8.65;2.80;;;;;;;;;;5052731;28;20226;-76
2023/08/04 08:13:39;;;;;;;8.95;2.90;;;;;;;;;;5055494;28;20123;-78
2023/08/04 08:16:13;;;;;;;6.18;2.47;;;;;;;;;;5056370;28;20099;-77
2023/08/04 08:18:39;;;;;;;6.18;2.40;;;;;;;;;;5055873;28;20048;-77
2023/08/04 08:21:09;;;;;;;6.72;2.38;;;;;;;;;;5055183;28;20041;-77
2023/08/04 08:23:35;;;;;;;5.22;2.42;;;;;;;;;;5055664;28;20037;-78
2023/08/04 08:26:03;;;;;;;7.88;2.40;;;;;;;;;;5040826;28;20371;-76
2023/08/04 08:28:29;;;;;;;6.38;2.72;;;;;;;;;;5073223;28;20456;-76
2023/08/04 08:30:55;;;;;;;7.25;2.60;;;;;;;;;;5070473;28;20127;-76
2023/08/04 08:33:22;;;;;;;9.18;2.58;;;;;;;;;;5055236;28;20045;-77
2023/08/04 08:35:48;;;;;;;8.30;2.80;;;;;;;;;;5055884;28;20091;-78
2023/08/04 08:38:14;;;;;;;9.40;2.88;;;;;;;;;;5061947;28;20095;-76
2023/08/04 08:40:40;;;;;;;7.60;2.83;;;;;;;;;;5060666;28;20436;-77
2023/08/04 08:43:06;;;;;;;8.30;2.50;;;;;;;;;;5064783;28;20379;-77
2023/08/04 08:45:34;;;;;;;7.68;2.33;;;;;;;;;;5043329;28;20099;-78
2023/08/04 08:48:00;;;;;;;9.30;2.70;;;;;;;;;;5065246;28;20044;-77
2023/08/04 08:50:27;;;;;;;7.38;2.65;;;;;;;;;;5065881;28;20098;-77
2023/08/04 08:53:07;;;;;;;8.13;2.28;;;;;;;;;;5057352;28;20486;-77
2023/08/04 08:55:34;;;;;;;6.68;2.20;;;;;;;;;;5054323;28;20426;-78
2023/08/04 08:58:01;;;;;;;6.18;2.55;;;;;;;;;;5055978;28;20045;-77
2023/08/04 09:00:28;;;;;;;7.28;2.25;;;;;;;;;;5065797;28;20037;-78
2023/08/04 09:02:55;;;;;;;6.90;2.42;;;;;;;;;;5090896;28;20626;-78
2023/08/04 09:05:21;;;;;;;6.43;2.25;;;;;;;;;;5092344;28;20063;-77
2023/08/04 09:07:51;;;;;;;7.80;2.20;;;;;;;;;;5094804;28;20048;-75
2023/08/04 09:10:17;;;;;;;7.38;2.20;;;;;;;;;;5093870;28;20051;-76
2023/08/04 09:12:48;;;;;;;7.50;2.17;;;;;;;;;;5094958;28;20119;-77
2023/08/04 09:15:15;;;;;;;4.72;1.98;;;;;;;;;;5094565;28;20052;-77
2023/08/04 09:17:42;;;;;;;8.43;2.45;;;;;;;;;;5088078;28;20040;-76
2023/08/04 09:20:09;;;;;;;5.85;1.98;;;;;;;;;;5072113;28;20128;-78
2023/08/04 09:22:39;;;;;;;7.07;2.03;;;;;;;;;;5090952;28;20040;-78
2023/08/04 09:25:07;;;;;;;7.90;1.80;;;;;;;;;;5090758;28;20063;-78
2023/08/04 09:27:43;;;;;;;8.18;2.00;;;;;;;;;;5059704;28;20526;-79
2023/08/04 09:30:11;;;;;;;9.10;2.10;;;;;;;;;;5071269;28;20052;-78
2023/08/04 09:32:49;;;;;;;6.82;2.20;;;;;;;;;;5071012;28;20560;-80
2023/08/04 09:35:15;;;;;;;5.03;1.88;;;;;;;;;;5070499;28;20052;-78
2023/08/04 09:37:42;;;;;;;5.80;1.92;;;;;;;;;;5052691;28;20400;-78
2023/08/04 09:40:18;;;;;;;5.43;2.00;;;;;;;;;;5054938;28;20465;-78
2023/08/04 09:42:45;;;;;;;7.53;2.22;;;;;;;;;;5092108;28;20464;-79
2023/08/04 09:45:15;;;;;;;10.93;2.47;;;;;;;;;;5058184;28;20135;-78
2023/08/04 09:47:46;;;;;;;6.88;2.55;;;;;;;;;;5094007;28;20040;-79
2023/08/04 09:50:12;;;;;;;8.65;2.55;;;;;;;;;;5092541;28;20039;-79
2023/08/04 09:52:38;;;;;;;11.85;2.63;;;;;;;;;;5076310;28;20101;-78
2023/08/04 09:55:08;;;;;;;6.85;2.50;;;;;;;;;;5075654;28;20138;-78
2023/08/04 09:57:35;;;;;;;7.95;1.92;;;;;;;;;;5094104;28;20044;-80
2023/08/04 10:00:01;;;;;;;7.75;1.95;;;;;;;;;;5074533;28;20040;-78
2023/08/04 10:02:27;;;;;;;4.65;1.73;;;;;;;;;;5093466;28;20459;-78
2023/08/04 10:04:54;;;;;;;8.88;2.03;;;;;;;;;;5075253;28;20051;-78
2023/08/04 10:07:20;;;;;;;4.82;1.92;;;;;;;;;;5094099;28;20048;-78
2023/08/04 10:09:48;;;;;;;7.40;2.00;;;;;;;;;;5091604;28;20411;-79
2023/08/04 10:12:14;;;;;;;5.43;1.70;;;;;;;;;;5092159;28;20044;-78
2023/08/04 10:14:41;;;;;;;7.10;1.63;;;;;;;;;;5089683;28;20089;-78
2023/08/04 10:17:07;;;;;;;5.53;1.48;;;;;;;;;;5093405;28;20052;-78
2023/08/04 10:19:34;;;;;;;5.55;1.60;;;;;;;;;;5090775;28;20040;-79
2023/08/04 10:22:05;;;;;;;5.72;1.80;;;;;;;;;;5090115;28;20205;-79
2023/08/04 10:24:34;;;;;;;3.50;1.50;;;;;;;;;;5088925;28;20490;-79
2023/08/04 10:27:04;;;;;;;3.83;1.30;;;;;;;;;;5090094;28;20048;-79
2023/08/04 10:29:32;;;;;;;4.03;1.40;;;;;;;;;;5090319;28;20044;-79
2023/08/04 10:31:58;;;;;;;3.80;1.52;;;;;;;;;;5090272;28;20051;-78
2023/08/04 10:34:32;;;;;;;3.80;1.40;;;;;;;;;;5070206;28;20086;-78
2023/08/04 10:37:04;;;;;;;4.50;1.35;;;;;;;;;;5090039;28;20087;-77
2023/08/04 10:39:34;;;;;;;5.40;1.50;;;;;;;;;;5089837;28;20040;-78
2023/08/04 10:42:01;;;;;;;5.68;1.85;;;;;;;;;;5089874;28;20080;-77
2023/08/04 10:44:31;;;;;;;5.32;1.70;;;;;;;;;;5090031;28;20453;-78
2023/08/04 10:47:01;;;;;;;4.20;1.50;;;;;;;;;;5071902;28;20067;-77
2023/08/04 10:49:27;;;;;;;3.88;1.33;;;;;;;;;;5089926;28;20131;-78
2023/08/04 10:51:54;;;;;;;3.72;1.23;;;;;;;;;;5071599;28;20056;-77
2023/08/04 10:54:20;;;;;;;6.75;1.63;;;;;;;;;;5089457;28;20070;-78
2023/08/04 10:56:46;;;;;;;5.28;1.30;;;;;;;;;;5071701;28;20429;-79
2023/08/04 10:59:12;;;;;;;3.35;1.40;;;;;;;;;;5071570;28;20047;-78
2023/08/04 11:01:39;;;;;;;2.80;1.40;;;;;;;;;;5069963;28;20517;-78
2023/08/04 11:04:05;;;;;;;5.22;1.45;;;;;;;;;;5066327;28;20082;-78
2023/08/04 11:06:31;;;;;;;2.83;1.40;;;;;;;;;;5069771;28;20048;-78
2023/08/04 11:08:58;;;;;;;4.03;1.50;;;;;;;;;;5035549;28;20044;-78
2023/08/04 11:11:25;;;;;;;4.38;1.30;;;;;;;;;;5072724;28;20049;-78
2023/08/04 11:13:56;;;;;;;4.35;1.33;;;;;;;;;;5073016;28;20401;-78
2023/08/04 11:16:24;;;;;;;3.10;1.30;;;;;;;;;;5093137;28;20410;-78
2023/08/04 11:18:52;;;;;;;4.38;1.50;;;;;;;;;;5076183;28;20052;-77
2023/08/04 11:21:19;;;;;;;5.05;1.40;;;;;;;;;;5079279;28;20413;-77
2023/08/04 11:23:45;;;;;;;3.97;1.40;;;;;;;;;;5074458;28;20037;-78
2023/08/04 11:26:11;;;;;;;6.65;1.70;;;;;;;;;;5054332;28;20181;-79
2023/08/04 11:28:37;;;;;;;4.03;1.40;;;;;;;;;;5072830;28;20045;-76
2023/08/04 11:31:04;;;;;;;6.88;1.70;;;;;;;;;;5072276;28;20127;-76
2023/08/04 11:33:31;;;;;;;4.85;1.40;;;;;;;;;;5072878;28;20056;-77
2023/08/04 11:35:57;;;;;;;4.38;1.65;;;;;;;;;;5072321;28;20121;-77
2023/08/04 11:38:23;;;;;;;3.80;1.50;;;;;;;;;;5072534;28;20040;-77
2023/08/04 11:40:56;;;;;;;2.95;1.50;;;;;;;;;;5070207;28;20076;-77
2023/08/04 11:43:22;;;;;;;4.55;1.73;;;;;;;;;;5054896;28;20116;-77
2023/08/04 11:45:49;;;;;;;4.13;1.20;;;;;;;;;;5054107;28;20048;-77
2023/08/04 11:48:15;;;;;;;5.63;1.33;;;;;;;;;;5037676;28;20435;-77
2023/08/04 11:50:41;;;;;;;5.38;1.38;;;;;;;;;;5053741;28;20503;-77
2023/08/04 11:53:07;;;;;;;3.83;1.30;;;;;;;;;;5054538;28;20044;-78
2023/08/04 11:55:34;;;;;;;5.32;1.38;;;;;;;;;;5072136;28;20080;-77
2023/08/04 11:58:00;;;;;;;4.25;1.40;;;;;;;;;;5072306;28;20042;-78
2023/08/04 12:00:36;;;;;;;4.82;1.63;;;;;;;;;;5071596;28;20124;-77
2023/08/04 12:03:03;;;;;;;5.85;1.92;;;;;;;;;;5071270;28;20053;-77
2023/08/04 12:05:30;;;;;;;4.80;1.67;;;;;;;;;;5071480;28;20489;-78
2023/08/04 12:07:57;;;;;;;4.72;1.63;;;;;;;;;;5072411;28;20074;-78
2023/08/04 12:10:26;;;;;;;5.25;1.52;;;;;;;;;;5070171;28;20048;-79
2023/08/04 12:12:52;;;;;;;3.10;1.58;;;;;;;;;;5054697;28;20036;-78
2023/08/04 12:15:19;;;;;;;3.72;1.55;;;;;;;;;;5075772;28;20048;-79
2023/08/04 12:17:45;;;;;;;4.82;1.60;;;;;;;;;;5075957;28;20124;-79
2023/08/04 12:20:12;;;;;;;5.15;1.48;;;;;;;;;;5075733;28;20044;-78
2023/08/04 12:22:40;;;;;;;4.70;1.65;;;;;;;;;;5057992;28;20051;-78
2023/08/04 12:25:08;;;;;;;4.28;1.70;;;;;;;;;;5075258;28;20048;-79
2023/08/04 12:27:34;;;;;;;5.60;1.80;;;;;;;;;;5075750;28;20128;-79
2023/08/04 12:30:01;;;;;;;3.25;1.40;;;;;;;;;;5057097;28;20044;-78
2023/08/04 12:32:27;;;;;;;3.90;1.40;;;;;;;;;;5075654;28;20036;-78
2023/08/04 12:34:53;;;;;;;3.90;1.60;;;;;;;;;;5057237;28;20087;-77
2023/08/04 12:37:20;;;;;;;4.85;1.60;;;;;;;;;;5075122;28;20045;-78
2023/08/04 12:39:46;;;;;;;4.43;1.63;;;;;;;;;;5057489;28;20443;-78
2023/08/04 12:42:12;;;;;;;4.45;1.70;;;;;;;;;;5075336;28;20112;-78
2023/08/04 12:44:38;;;;;;;4.13;1.60;;;;;;;;;;5056437;28;20056;-78
2023/08/04 12:47:04;;;;;;;4.32;1.50;;;;;;;;;;5075278;28;20119;-78
2023/08/04 12:49:30;;;;;;;3.63;1.50;;;;;;;;;;5084128;28;20051;-78
2023/08/04 12:51:56;;;;;;;5.22;1.65;;;;;;;;;;5057131;28;20055;-78
2023/08/04 12:54:23;;;;;;;5.35;1.55;;;;;;;;;;5082849;28;20040;-78
2023/08/04 12:56:49;;;;;;;5.03;1.60;;;;;;;;;;5086854;28;20437;-76
2023/08/04 12:59:15;;;;;;;3.83;1.58;;;;;;;;;;5077232;28;20371;-73
2023/08/04 13:01:41;;;;;;;4.82;1.58;;;;;;;;;;5091385;28;20048;-74
2023/08/04 13:04:08;;;;;;;4.53;1.73;;;;;;;;;;5090863;28;20385;-75
2023/08/04 13:06:34;;;;;;;5.03;1.77;;;;;;;;;;5056757;28;20044;-75
2023/08/04 13:09:00;;;;;;;4.88;1.80;;;;;;;;;;5074828;28;20055;-75
2023/08/04 13:11:26;;;;;;;4.78;1.60;;;;;;;;;;5079096;28;20045;-74
2023/08/04 13:13:52;;;;;;;6.40;1.83;;;;;;;;;;5078107;28;20089;-74
2023/08/04 13:16:21;;;;;;;4.55;1.45;;;;;;;;;;5082518;28;20060;-74
2023/08/04 13:18:51;;;;;;;4.55;1.40;;;;;;;;;;5074581;28;20044;-74
2023/08/04 13:21:17;;;;;;;5.10;1.85;;;;;;;;;;5083237;28;20045;-75
2023/08/04 13:23:43;;;;;;;8.00;2.00;;;;;;;;;;5082668;28;20047;-74
2023/08/04 13:26:10;;;;;;;6.25;1.80;;;;;;;;;;5094141;28;20048;-74
2023/08/04 13:28:36;;;;;;;4.65;1.80;;;;;;;;;;5076370;28;20127;-75
2023/08/04 13:31:05;;;;;;;4.53;1.50;;;;;;;;;;5094491;28;20051;-75
2023/08/04 13:33:31;;;;;;;4.65;1.50;;;;;;;;;;5059609;28;20096;-74
2023/08/04 13:35:58;;;;;;;3.35;1.52;;;;;;;;;;5075771;28;20092;-74
2023/08/04 13:38:24;;;;;;;5.45;1.80;;;;;;;;;;5075717;28;20044;-74
2023/08/04 13:40:50;;;;;;;5.22;1.80;;;;;;;;;;5074615;28;20040;-74
2023/08/04 13:43:17;;;;;;;5.45;1.80;;;;;;;;;;5092411;28;20040;-75
2023/08/04 13:45:44;;;;;;;4.95;1.75;;;;;;;;;;5091024;28;20041;-75
2023/08/04 13:48:10;;;;;;;7.32;2.00;;;;;;;;;;5059321;28;20047;-74
2023/08/04 13:50:37;;;;;;;5.78;2.15;;;;;;;;;;5087469;28;20040;-74
2023/08/04 13:53:03;;;;;;;4.13;2.00;;;;;;;;;;5085613;28;20123;-74
2023/08/04 13:55:29;;;;;;;4.47;1.55;;;;;;;;;;5078809;28;20051;-74
2023/08/04 13:57:55;;;;;;;7.13;2.45;;;;;;;;;;5093405;28;20036;-74
2023/08/04 14:00:21;;;;;;;3.35;1.90;;;;;;;;;;5093544;28;20409;-74
2023/08/04 14:02:47;;;;;;;6.57;2.25;;;;;;;;;;5074921;28;20097;-74
2023/08/04 14:05:13;;;;;;;8.40;2.10;;;;;;;;;;5092627;28;20508;-74
2023/08/04 14:07:43;;;;;;;6.88;2.40;;;;;;;;;;5088487;28;20405;-74
2023/08/04 14:10:13;;;;;;;6.07;2.00;;;;;;;;;;5081026;28;20392;-74
2023/08/04 14:12:39;;;;;;;5.95;2.10;;;;;;;;;;5071024;28;20528;-73
2023/08/04 14:15:06;;;;;;;6.35;1.90;;;;;;;;;;5080953;28;20035;-74
2023/08/04 14:17:32;;;;;;;5.47;2.05;;;;;;;;;;5070280;28;20193;-74
2023/08/04 14:19:58;;;;;;;5.53;1.90;;;;;;;;;;5084146;28;20180;-74
2023/08/04 14:22:24;;;;;;;4.03;1.95;;;;;;;;;;5093723;28;20128;-74
2023/08/04 14:24:50;;;;;;;4.78;2.00;;;;;;;;;;5056616;28;20044;-74
2023/08/04 14:27:16;;;;;;;4.38;1.63;;;;;;;;;;5055366;28;20076;-75
2023/08/04 14:29:44;;;;;;;4.30;1.80;;;;;;;;;;5058510;28;20308;-73
2023/08/04 14:32:10;;;;;;;4.53;1.70;;;;;;;;;;5085330;28;20044;-73
2023/08/04 14:34:36;;;;;;;3.33;1.50;;;;;;;;;;5072737;28;20599;-73
2023/08/04 14:37:03;;;;;;;2.90;1.60;;;;;;;;;;5091229;28;20558;-73
2023/08/04 14:39:29;;;;;;;3.25;1.70;;;;;;;;;;5092048;28;20044;-75
2023/08/04 14:41:55;;;;;;;4.32;1.60;;;;;;;;;;5074951;28;20131;-75
2023/08/04 14:44:21;;;;;;;3.55;1.60;;;;;;;;;;5079488;28;20044;-74
2023/08/04 14:46:48;;;;;;;5.30;1.80;;;;;;;;;;5079187;28;20044;-72
2023/08/04 14:49:14;;;;;;;7.07;1.92;;;;;;;;;;5080418;28;20050;-73
2023/08/04 14:51:40;;;;;;;4.95;1.70;;;;;;;;;;5093125;28;20040;-73
2023/08/04 14:54:06;;;;;;;3.10;1.60;;;;;;;;;;5092992;28;20507;-74
2023/08/04 14:56:32;;;;;;;4.63;1.88;;;;;;;;;;5092772;28;20438;-75
2023/08/04 14:58:58;;;;;;;7.00;2.08;;;;;;;;;;5074772;28;20047;-75
2023/08/04 15:01:24;;;;;;;3.25;1.88;;;;;;;;;;5092508;28;20060;-75
2023/08/04 15:03:50;;;;;;;5.63;2.10;;;;;;;;;;5061827;28;20519;-75
2023/08/04 15:06:18;;;;;;;4.55;1.92;;;;;;;;;;5091861;28;20076;-76
2023/08/04 15:08:44;;;;;;;4.97;2.08;;;;;;;;;;5085062;28;20048;-74
2023/08/04 15:11:11;;;;;;;5.40;2.10;;;;;;;;;;5053539;28;20044;-75
2023/08/04 15:13:37;;;;;;;5.75;2.05;;;;;;;;;;5054494;28;20044;-74
2023/08/04 15:16:04;;;;;;;8.05;2.33;;;;;;;;;;5072163;28;20043;-78
2023/08/04 15:18:30;;;;;;;4.95;2.00;;;;;;;;;;5054726;28;20052;-78
2023/08/04 15:20:56;;;;;;;5.72;2.15;;;;;;;;;;5078834;28;20068;-76
2023/08/04 15:23:23;;;;;;;7.43;2.10;;;;;;;;;;5092810;28;20040;-77
2023/08/04 15:25:49;;;;;;;4.13;2.00;;;;;;;;;;5092196;28;20040;-76
2023/08/04 15:28:16;;;;;;;4.97;2.00;;;;;;;;;;5074393;28;20082;-76
2023/08/04 15:30:42;;;;;;;5.28;2.25;;;;;;;;;;5074121;28;20036;-76
2023/08/04 15:33:08;;;;;;;5.07;2.08;;;;;;;;;;5087469;28;20040;-77